Time;durP1;ratioP1;P1;durP2;ratioP2;P2;SDS_P1;SDS_P2;PMS_P1;PMS_P2;Temp;Humidity;BMP_temperature;BMP_pressure;BME280_temperature;BME280_humidity;BME280_pressure;Samples;Min_cycle;Max_cycle;Signal;HPM_P1;HPM_P2
2023/05/07 00:03:07;;;;;;;1.90;1.80;;;;;;;18.07;52.11;97946.25;8376906;28;20232;-69
2023/05/07 00:07:12;;;;;;;1.97;1.70;;;;;;;18.07;51.50;97946.25;8377446;28;20283;-69
2023/05/07 00:11:18;;;;;;;1.90;1.77;;;;;;;17.93;51.70;97945.50;8382875;28;20228;-69
2023/05/07 00:15:21;;;;;;;2.10;2.00;;;;;;;18.13;51.37;97954.47;8382410;28;20232;-70
2023/05/07 00:19:24;;;;;;;1.90;1.80;;;;;;;18.11;51.35;97956.38;8382608;28;20236;-70
2023/05/07 00:23:28;;;;;;;2.07;1.97;;;;;;;18.19;51.52;97957.59;8382394;28;20244;-69
2023/05/07 00:27:32;;;;;;;2.17;2.07;;;;;;;18.20;51.54;97959.22;8382545;28;20233;-69
2023/05/07 00:31:35;;;;;;;4.03;2.10;;;;;;;18.20;51.39;97962.72;8382520;28;20308;-70
2023/05/07 00:35:40;;;;;;;2.40;1.97;;;;;;;18.21;51.51;97959.13;8382064;28;20244;-70
2023/05/07 00:39:44;;;;;;;2.00;1.90;;;;;;;18.20;51.75;97954.00;8382090;28;20248;-69
2023/05/07 00:43:47;;;;;;;2.07;1.90;;;;;;;18.25;51.48;97954.50;8381970;28;20228;-70
2023/05/07 00:47:50;;;;;;;2.10;1.87;;;;;;;18.17;52.46;97963.75;8381723;28;20432;-69
2023/05/07 00:51:52;;;;;;;2.77;2.00;;;;;;;18.06;51.80;97937.53;8381400;28;20224;-70
2023/05/07 00:55:57;;;;;;;3.80;2.83;;;;;;;18.10;52.50;97944.19;8381446;28;20228;-70
2023/05/07 01:00:00;;;;;;;2.17;2.00;;;;;;;17.87;50.53;97932.00;8381413;28;20233;-69
2023/05/07 01:04:02;;;;;;;2.07;1.97;;;;;;;17.95;51.03;97948.84;8381317;28;20229;-70
2023/05/07 01:08:06;;;;;;;2.57;1.80;;;;;;;18.08;50.29;97942.66;8381123;28;20220;-70
2023/05/07 01:12:10;;;;;;;2.43;1.90;;;;;;;18.15;49.97;97939.47;8381066;28;20236;-69
2023/05/07 01:16:13;;;;;;;2.10;1.90;;;;;;;17.97;50.07;97935.59;8380627;28;20441;-70
2023/05/07 01:20:16;;;;;;;2.13;1.93;;;;;;;18.17;50.48;97941.97;8380218;28;20456;-69
2023/05/07 01:24:20;;;;;;;2.97;1.90;;;;;;;17.96;50.39;97945.25;8380305;28;20410;-70
2023/05/07 01:28:26;;;;;;;3.27;2.30;;;;;;;18.10;50.65;97946.00;8380080;28;20244;-70
2023/05/07 01:32:33;;;;;;;2.50;2.30;;;;;;;18.00;50.97;97924.91;8380420;28;20232;-70
2023/05/07 01:36:38;;;;;;;2.43;2.27;;;;;;;18.09;50.70;97939.09;8380064;28;20416;-70
2023/05/07 01:40:46;;;;;;;2.47;2.27;;;;;;;18.08;50.85;97930.38;8379903;28;20244;-70
2023/05/07 01:44:49;;;;;;;2.40;2.30;;;;;;;17.41;50.96;97831.50;8380020;28;20221;-70
2023/05/07 01:48:52;;;;;;;3.57;2.40;;;;;;;17.82;50.79;97929.72;8379979;28;20239;-70
2023/05/07 01:52:56;;;;;;;2.50;2.30;;;;;;;17.75;50.55;97923.25;8379941;28;20270;-70
2023/05/07 01:57:01;;;;;;;2.40;2.20;;;;;;;17.98;51.11;97929.41;8379832;28;20540;-70
2023/05/07 02:01:04;;;;;;;2.40;2.20;;;;;;;17.96;51.13;97931.31;8379594;28;20252;-70
2023/05/07 02:05:08;;;;;;;3.50;2.37;;;;;;;17.94;51.26;97923.56;8379562;28;20238;-70
2023/05/07 02:09:11;;;;;;;2.30;2.20;;;;;;;17.87;50.50;97919.72;8379438;28;20231;-69
2023/05/07 02:13:16;;;;;;;2.60;2.50;;;;;;;17.85;50.99;97934.72;8379334;28;20232;-70
2023/05/07 02:17:19;;;;;;;3.50;2.80;;;;;;;17.83;50.85;97931.38;8378711;28;20228;-70
2023/05/07 02:21:22;;;;;;;2.90;2.70;;;;;;;17.83;51.49;97933.16;8379131;28;20225;-70
2023/05/07 02:25:25;;;;;;;3.30;2.43;;;;;;;17.82;50.83;97931.47;8379509;28;20274;-70
2023/05/07 02:29:31;;;;;;;2.67;2.47;;;;;;;17.82;51.93;97921.84;8379209;28;20262;-69
2023/05/07 02:33:36;;;;;;;3.60;2.67;;;;;;;17.70;51.90;97928.81;8378430;28;20225;-70
2023/05/07 02:37:39;;;;;;;3.20;2.90;;;;;;;17.72;51.96;97934.78;8379129;28;20229;-70
2023/05/07 02:41:42;;;;;;;2.90;2.70;;;;;;;17.69;51.62;97934.19;8378370;28;20240;-69
2023/05/07 02:45:46;;;;;;;3.40;2.87;;;;;;;17.68;51.21;97935.94;8378523;28;20514;-70
2023/05/07 02:49:49;;;;;;;3.70;3.40;;;;;;;17.61;51.07;97932.13;8378736;28;20441;-70
2023/05/07 02:53:51;;;;;;;3.10;2.87;;;;;;;17.65;51.15;97933.56;8378170;28;20224;-70
2023/05/07 02:57:54;;;;;;;3.13;2.93;;;;;;;17.50;51.32;97924.22;8378184;28;20232;-70
2023/05/07 03:01:58;;;;;;;3.20;3.00;;;;;;;17.28;51.73;97925.78;8377972;28;20237;-70
2023/05/07 03:06:01;;;;;;;3.87;3.43;;;;;;;17.43;51.54;97921.22;8377829;28;20232;-70
2023/05/07 03:10:04;;;;;;;4.33;3.27;;;;;;;17.38;51.64;97918.09;8377966;28;20239;-69
2023/05/07 03:14:07;;;;;;;3.43;3.20;;;;;;;17.18;51.23;97896.00;8378000;28;20342;-70
2023/05/07 03:18:11;;;;;;;3.50;3.20;;;;;;;17.38;51.76;97920.69;8377601;28;20243;-68
2023/05/07 03:22:14;;;;;;;3.60;3.30;;;;;;;17.25;51.51;97910.31;8378112;28;20232;-70
2023/05/07 03:26:17;;;;;;;4.20;3.53;;;;;;;17.15;52.02;97912.75;8378251;28;20521;-69
2023/05/07 03:30:20;;;;;;;3.30;3.00;;;;;;;17.32;52.44;97905.44;8377145;28;20236;-70
2023/05/07 03:34:24;;;;;;;3.53;3.23;;;;;;;17.32;52.69;97908.91;8377623;28;20225;-69
2023/05/07 03:38:26;;;;;;;3.40;3.10;;;;;;;17.19;53.27;97916.81;8377602;28;20623;-69
2023/05/07 03:42:29;;;;;;;4.67;3.10;;;;;;;17.19;53.45;97918.59;8379853;28;20228;-70
2023/05/07 03:46:32;;;;;;;5.03;2.50;;;;;;;17.12;53.77;97920.81;8384030;28;20224;-69
2023/05/07 03:50:36;;;;;;;2.83;2.60;;;;;;;17.06;53.89;97920.41;8384422;28;20285;-70
2023/05/07 03:54:43;;;;;;;3.63;2.90;;;;;;;16.95;54.18;97937.72;8384214;28;20747;-70
2023/05/07 03:58:46;;;;;;;2.63;2.40;;;;;;;16.93;54.57;97937.00;8383823;28;20434;-70
2023/05/07 04:02:49;;;;;;;3.07;2.60;;;;;;;16.90;54.64;97947.66;8382473;28;20239;-69
2023/05/07 04:06:53;;;;;;;3.47;2.40;;;;;;;17.04;54.14;97957.16;8383338;28;20389;-70
2023/05/07 04:10:57;;;;;;;3.00;2.80;;;;;;;17.04;54.22;97974.63;8382956;28;20349;-70
2023/05/07 04:14:59;;;;;;;2.27;2.17;;;;;;;16.95;54.46;97965.66;8382605;28;20236;-70
2023/05/07 04:19:02;;;;;;;3.00;2.70;;;;;;;16.95;54.41;97976.13;8382756;28;20418;-69
2023/05/07 04:23:06;;;;;;;3.20;2.90;;;;;;;16.90;54.81;97978.22;8382445;28;20253;-70
2023/05/07 04:27:09;;;;;;;3.83;2.80;;;;;;;16.83;54.99;97958.66;8382743;28;20225;-70
2023/05/07 04:31:12;;;;;;;3.43;3.13;;;;;;;16.90;54.52;97973.81;8382462;28;20228;-69
2023/05/07 04:35:15;;;;;;;3.27;3.07;;;;;;;17.00;54.46;97980.09;8382316;28;20527;-70
2023/05/07 04:39:22;;;;;;;3.60;3.30;;;;;;;17.00;54.93;97979.22;8381938;28;20224;-69
2023/05/07 04:43:25;;;;;;;3.13;2.80;;;;;;;17.14;54.92;97986.13;8382035;28;20228;-70
2023/05/07 04:47:27;;;;;;;3.57;3.30;;;;;;;17.26;54.36;97985.25;8381793;28;20236;-69
2023/05/07 04:51:32;;;;;;;4.70;4.20;;;;;;;17.15;54.40;97972.94;8381941;28;20245;-69
2023/05/07 04:55:36;;;;;;;6.03;4.70;;;;;;;17.55;53.97;97985.78;8381122;28;20235;-69
2023/05/07 04:59:39;;;;;;;5.50;5.00;;;;;;;17.53;53.79;97985.03;8380880;28;20224;-69
2023/05/07 05:03:44;;;;;;;5.30;4.80;;;;;;;17.35;53.66;97976.75;8381227;28;20444;-70
2023/05/07 05:07:47;;;;;;;4.97;4.47;;;;;;;17.49;53.12;97986.22;8381589;28;20546;-70
2023/05/07 05:11:51;;;;;;;5.77;5.27;;;;;;;17.06;54.21;97983.19;8381106;28;20566;-70
2023/05/07 05:15:54;;;;;;;5.63;5.13;;;;;;;17.26;53.61;97990.47;8380940;28;20227;-69
2023/05/07 05:19:57;;;;;;;6.33;5.73;;;;;;;16.70;54.59;97988.25;8381038;28;20242;-70
2023/05/07 05:23:59;;;;;;;6.50;5.90;;;;;;;16.87;54.45;97996.72;8380642;28;20242;-69
2023/05/07 05:28:04;;;;;;;7.17;6.33;;;;;;;16.93;53.84;97988.47;8380527;28;20232;-69
2023/05/07 05:32:07;;;;;;;6.70;6.20;;;;;;;16.80;54.99;97993.69;8380595;28;20226;-70
2023/05/07 05:36:11;;;;;;;8.53;7.77;;;;;;;16.87;55.26;97989.75;8380316;28;20236;-69
2023/05/07 05:40:14;;;;;;;7.07;6.47;;;;;;;17.51;53.85;98007.03;8380183;28;20439;-72
2023/05/07 05:44:18;;;;;;;6.70;6.20;;;;;;;17.22;54.48;97994.25;8379498;28;20231;-69
2023/05/07 05:48:21;;;;;;;7.60;6.97;;;;;;;17.26;53.92;98006.19;8379364;28;20395;-70
2023/05/07 05:52:24;;;;;;;6.87;6.30;;;;;;;17.08;53.63;97991.81;8379490;28;20236;-69
2023/05/07 05:56:27;;;;;;;7.20;6.50;;;;;;;17.62;52.43;98007.09;8379654;28;20225;-69
2023/05/07 06:00:32;;;;;;;7.27;6.67;;;;;;;17.18;53.64;98005.91;8379559;28;20426;-69
2023/05/07 06:04:34;;;;;;;7.30;6.50;;;;;;;17.38;53.74;98001.84;8379127;28;20371;-69
2023/05/07 06:08:38;;;;;;;6.90;6.17;;;;;;;17.69;53.12;97995.25;8379049;28;28097;-69
2023/05/07 06:12:40;;;;;;;6.70;6.10;;;;;;;16.60;53.98;97819.88;8379208;28;20235;-70
2023/05/07 06:16:45;;;;;;;6.90;6.37;;;;;;;17.90;53.84;97997.28;8379084;28;20245;-70
2023/05/07 06:20:48;;;;;;;7.33;6.63;;;;;;;18.10;53.11;97994.00;8379258;28;20228;-69
2023/05/07 06:24:51;;;;;;;7.80;6.80;;;;;;;18.35;52.58;98008.72;8378969;28;20227;-70
2023/05/07 06:28:54;;;;;;;7.10;6.50;;;;;;;18.13;53.03;98011.28;8378720;28;20225;-69
2023/05/07 06:32:58;;;;;;;7.23;6.67;;;;;;;18.45;52.55;98013.25;8378366;28;20231;-69
2023/05/07 06:37:01;;;;;;;6.70;6.20;;;;;;;18.32;52.38;98006.34;8379123;28;20233;-69
2023/05/07 06:41:04;;;;;;;6.70;6.10;;;;;;;18.02;52.74;98022.56;8378450;28;20589;-69
2023/05/07 06:45:08;;;;;;;7.83;7.00;;;;;;;17.57;53.34;98009.22;8378422;28;20228;-69
2023/05/07 06:49:13;;;;;;;7.50;6.80;;;;;;;17.91;53.01;98033.81;8378633;28;20232;-69
2023/05/07 06:53:16;;;;;;;8.17;7.47;;;;;;;18.03;52.65;98033.88;8378920;28;20234;-69
2023/05/07 06:57:18;;;;;;;8.07;7.30;;;;;;;17.92;52.63;98045.16;8377931;28;20228;-70
2023/05/07 07:01:21;;;;;;;7.10;6.50;;;;;;;17.79;52.56;98039.94;8378304;28;20228;-70
2023/05/07 07:05:26;;;;;;;7.93;7.23;;;;;;;18.16;52.14;98038.09;8378133;28;20252;-70
2023/05/07 07:09:29;;;;;;;7.03;6.33;;;;;;;18.60;51.44;98040.09;8378459;28;20233;-70
2023/05/07 07:13:32;;;;;;;7.60;7.00;;;;;;;18.36;51.04;98038.41;8377602;28;20232;-69
2023/05/07 07:17:35;;;;;;;6.80;6.20;;;;;;;17.89;52.49;98034.88;8379901;28;20233;-69
2023/05/07 07:21:39;;;;;;;7.37;6.67;;;;;;;18.03;51.44;98024.25;8384002;28;20355;-69
2023/05/07 07:25:42;;;;;;;7.00;6.40;;;;;;;18.25;51.38;98028.72;8384500;28;20225;-69
2023/05/07 07:29:45;;;;;;;7.80;6.70;;;;;;;17.90;52.25;98033.97;8384034;28;20238;-69
2023/05/07 07:33:49;;;;;;;7.80;6.97;;;;;;;18.62;50.93;98035.56;8384581;28;20275;-69
2023/05/07 07:37:56;;;;;;;9.70;7.37;;;;;;;18.54;50.44;98031.78;8384165;28;20255;-69
2023/05/07 07:41:59;;;;;;;6.80;6.13;;;;;;;18.46;51.04;98028.06;8383516;28;20232;-69
2023/05/07 07:46:01;;;;;;;7.53;6.83;;;;;;;18.38;50.84;98039.13;8383868;28;20222;-70
2023/05/07 07:50:05;;;;;;;6.30;5.70;;;;;;;19.44;49.62;98040.63;8383788;28;20251;-72
2023/05/07 07:54:09;;;;;;;6.97;6.37;;;;;;;18.92;50.50;98042.91;8383884;28;20556;-69
2023/05/07 07:58:12;;;;;;;6.70;6.00;;;;;;;18.84;50.23;98034.81;8383930;28;20399;-70
2023/05/07 08:02:15;;;;;;;7.33;6.73;;;;;;;19.40;49.66;98033.94;8383156;28;20225;-70
2023/05/07 08:06:18;;;;;;;6.63;6.10;;;;;;;19.31;49.47;98038.97;8382885;28;20532;-71
2023/05/07 08:10:26;;;;;;;6.50;6.00;;;;;;;19.17;49.16;98035.75;8383477;28;20236;-70
2023/05/07 08:14:29;;;;;;;5.77;5.37;;;;;;;19.62;48.58;98040.97;8383004;28;20238;-70
2023/05/07 08:18:34;;;;;;;5.83;5.40;;;;;;;20.16;48.31;98045.31;8383200;28;20548;-69
2023/05/07 08:22:37;;;;;;;7.13;6.53;;;;;;;20.30;46.95;98055.56;8383290;28;20244;-69
2023/05/07 08:26:42;;;;;;;5.70;5.20;;;;;;;21.07;45.95;98041.19;8383063;28;20238;-70
2023/05/07 08:30:48;;;;;;;5.57;5.17;;;;;;;20.42;47.41;98052.88;8382101;28;20397;-70
2023/05/07 08:34:51;;;;;;;5.80;5.23;;;;;;;20.53;46.64;98062.50;8383106;28;20236;-69
2023/05/07 08:38:54;;;;;;;6.40;5.90;;;;;;;20.58;46.45;98055.88;8382542;28;20513;-69
2023/05/07 08:42:59;;;;;;;5.63;5.20;;;;;;;21.32;45.35;98048.78;8382501;28;20233;-68
2023/05/07 08:47:02;;;;;;;6.13;5.53;;;;;;;21.98;44.07;98051.69;8382827;28;20247;-68
2023/05/07 08:51:06;;;;;;;5.90;5.40;;;;;;;21.96;43.24;98029.09;8382159;28;20232;-68
2023/05/07 08:55:10;;;;;;;5.50;5.00;;;;;;;21.72;44.42;98047.94;8382629;28;20528;-68
2023/05/07 08:59:15;;;;;;;5.80;5.30;;;;;;;21.85;43.23;98043.22;8382343;28;20288;-69
2023/05/07 09:03:18;;;;;;;5.60;5.20;;;;;;;22.37;41.96;98048.25;8381513;28;20233;-70
2023/05/07 09:07:21;;;;;;;5.00;4.60;;;;;;;22.27;41.85;97963.03;8381578;28;20225;-69
2023/05/07 09:11:24;;;;;;;5.23;4.83;;;;;;;22.18;42.95;98043.78;8381550;28;20233;-69
2023/05/07 09:15:29;;;;;;;5.33;5.00;;;;;;;22.11;43.22;98045.34;8381288;28;20225;-68
2023/05/07 09:19:32;;;;;;;4.93;4.57;;;;;;;22.86;41.34;98041.06;8381371;28;20233;-68
2023/05/07 09:23:35;;;;;;;5.20;4.80;;;;;;;22.55;42.92;98038.63;8381032;28;20229;-68
2023/05/07 09:27:38;;;;;;;5.47;4.57;;;;;;;22.48;41.73;98036.72;8381195;28;20537;-69
2023/05/07 09:31:42;;;;;;;4.97;4.57;;;;;;;23.07;39.93;98027.66;8380822;28;20533;-69
2023/05/07 09:35:45;;;;;;;6.67;4.93;;;;;;;22.75;41.32;98031.53;8380147;28;20233;-69
2023/05/07 09:39:49;;;;;;;4.40;4.10;;;;;;;23.42;40.04;98029.59;8380428;28;20513;-71
2023/05/07 09:43:55;;;;;;;5.00;4.37;;;;;;;23.04;40.85;98030.63;8380245;28;20235;-68
2023/05/07 09:47:59;;;;;;;3.80;3.50;;;;;;;24.68;38.69;98000.47;8379804;28;20228;-68
2023/05/07 09:52:05;;;;;;;4.53;4.13;;;;;;;23.73;39.07;98031.06;8379404;28;20237;-68
2023/05/07 09:56:09;;;;;;;4.20;3.80;;;;;;;24.30;37.78;98028.97;8379291;28;20236;-68
2023/05/07 10:00:16;;;;;;;3.70;3.43;;;;;;;24.33;38.01;98019.88;8379068;28;20406;-68
2023/05/07 10:04:22;;;;;;;3.23;3.00;;;;;;;23.84;37.58;98024.75;8378258;28;20320;-69
2023/05/07 10:08:25;;;;;;;3.67;3.37;;;;;;;23.64;38.40;98018.75;8378498;28;20236;-69
2023/05/07 10:12:28;;;;;;;3.50;3.20;;;;;;;23.60;38.12;98021.69;8379068;28;20417;-70
2023/05/07 10:16:32;;;;;;;5.90;5.13;;;;;;;24.97;37.56;98000.13;8379016;28;20294;-69
2023/05/07 10:20:37;;;;;;;3.43;3.20;;;;;;;24.64;37.93;98019.50;8378749;28;20548;-69
2023/05/07 10:24:40;;;;;;;3.40;3.10;;;;;;;23.14;38.85;98026.13;8378516;28;20232;-69
2023/05/07 10:28:47;;;;;;;3.17;2.97;;;;;;;22.59;39.79;98024.19;8378683;28;20552;-69
2023/05/07 10:32:51;;;;;;;4.13;3.43;;;;;;;23.03;38.56;98018.38;8378581;28;20224;-69
2023/05/07 10:36:57;;;;;;;4.40;4.03;;;;;;;23.23;39.17;98019.13;8378144;28;20339;-68
2023/05/07 10:41:00;;;;;;;3.47;3.10;;;;;;;24.52;37.73;98019.75;8378888;28;20229;-68
2023/05/07 10:45:13;;;;;;;3.80;3.50;;;;;;;23.64;38.09;98027.50;8378902;28;20236;-68
2023/05/07 10:49:16;;;;;;;3.43;3.13;;;;;;;23.16;39.35;98010.94;8378446;28;20433;-68
2023/05/07 10:53:28;;;;;;;3.90;3.60;;;;;;;23.22;38.13;98017.47;8377552;28;20235;-68
2023/05/07 10:57:36;;;;;;;4.23;3.50;;;;;;;23.48;37.92;98014.13;8378635;28;20221;-69
2023/05/07 11:01:54;;;;;;;3.67;3.37;;;;;;;24.76;37.89;98003.16;8378403;28;20225;-70
2023/05/07 11:06:12;;;;;;;3.70;3.40;;;;;;;24.96;38.19;97987.88;8378263;28;20229;-70
2023/05/07 11:13:50;;;;;;;3.93;3.63;;;;;;;25.54;35.84;97991.56;8449466;27;20545;-69
2023/05/07 11:17:54;;;;;;;4.00;3.47;;;;;;;24.49;38.65;97995.38;8441267;28;20223;-69
2023/05/07 11:26:01;;;;;;;4.20;3.80;;;;;;;23.92;39.26;97964.84;8380485;27;20556;-70
2023/05/07 11:30:08;;;;;;;4.13;3.77;;;;;;;23.54;39.03;97987.09;8373471;28;20225;-69
2023/05/07 11:34:12;;;;;;;4.17;3.57;;;;;;;25.10;35.78;97986.44;8373611;28;20468;-69
2023/05/07 11:38:15;;;;;;;3.23;3.00;;;;;;;26.27;35.22;97978.53;8372998;28;20252;-70
2023/05/07 11:42:29;;;;;;;3.77;3.57;;;;;;;24.69;35.82;97985.41;8372182;28;20233;-69
2023/05/07 11:46:31;;;;;;;8.00;7.20;;;;;;;24.26;37.85;97989.75;8373248;28;20255;-70
2023/05/07 11:50:34;;;;;;;5.20;4.80;;;;;;;24.36;38.02;97978.06;8372971;28;20320;-70
2023/05/07 11:54:38;;;;;;;5.40;4.90;;;;;;;24.29;37.44;97977.03;8372509;28;20256;-69
2023/05/07 11:58:46;;;;;;;4.13;3.83;;;;;;;24.45;36.88;97981.59;8372701;28;20228;-69
2023/05/07 12:02:49;;;;;;;3.37;3.17;;;;;;;24.43;36.35;97980.94;8372737;28;20237;-69
2023/05/07 12:06:55;;;;;;;5.53;4.70;;;;;;;24.48;36.25;97909.00;8372457;28;20221;-70
2023/05/07 12:10:58;;;;;;;3.87;3.20;;;;;;;25.33;35.80;97981.41;8372710;28;20430;-69
2023/05/07 12:15:02;;;;;;;5.67;5.17;;;;;;;25.40;34.57;97973.66;8372443;28;20238;-69
2023/05/07 12:19:06;;;;;;;6.10;5.50;;;;;;;25.18;34.01;97969.75;8371951;28;20244;-70
2023/05/07 12:23:09;;;;;;;3.27;3.07;;;;;;;25.33;34.14;97967.34;8371660;28;20237;-70
2023/05/07 12:27:12;;;;;;;5.20;4.73;;;;;;;25.48;34.47;97981.63;8372011;28;20528;-70
2023/05/07 12:31:16;;;;;;;4.20;3.90;;;;;;;26.39;32.73;97974.56;8372309;28;20525;-69
2023/05/07 12:35:27;;;;;;;3.17;2.97;;;;;;;27.14;33.04;97978.66;8360215;28;20522;-69
2023/05/07 12:39:30;;;;;;;3.67;3.38;;;;;;;26.52;32.81;97972.22;8349176;28;20237;-69
2023/05/07 12:43:33;;;;;;;3.20;3.00;;;;;;;27.34;32.04;97976.47;8349366;28;20241;-68
2023/05/07 12:47:38;;;;;;;2.95;2.70;;;;;;;27.22;33.36;97964.50;8349040;28;20255;-68
2023/05/07 12:51:41;;;;;;;3.40;3.10;;;;;;;26.26;33.47;97968.94;8349128;28;20229;-69
2023/05/07 12:55:45;;;;;;;3.60;3.30;;;;;;;26.90;33.05;97958.34;8348497;28;20456;-69
2023/05/07 12:59:48;;;;;;;3.92;3.35;;;;;;;25.85;33.17;97963.59;8349245;28;20232;-69
2023/05/07 13:03:52;;;;;;;3.40;3.20;;;;;;;26.32;32.21;97960.28;8348421;28;20245;-68
2023/05/07 13:07:55;;;;;;;2.90;2.70;;;;;;;26.83;32.95;97954.72;8348492;28;20285;-68
2023/05/07 13:11:59;;;;;;;3.22;3.03;;;;;;;25.58;34.63;97944.34;8348661;28;20526;-67
2023/05/07 13:16:03;;;;;;;3.25;2.95;;;;;;;26.56;32.49;97953.28;8348738;28;20403;-68
2023/05/07 13:20:10;;;;;;;3.10;2.90;;;;;;;26.02;31.94;97953.84;8348380;28;20328;-69
2023/05/07 13:24:13;;;;;;;3.05;2.78;;;;;;;25.12;33.32;97952.66;8347723;28;20233;-69
2023/05/07 13:28:15;;;;;;;3.00;2.80;;;;;;;26.47;32.55;97941.84;8347752;28;20568;-69
2023/05/07 13:32:18;;;;;;;2.75;2.55;;;;;;;26.14;32.08;97941.88;8347149;28;20308;-68
2023/05/07 13:36:22;;;;;;;3.10;2.90;;;;;;;26.19;31.72;97938.75;8347972;28;20230;-69
2023/05/07 13:40:25;;;;;;;3.33;3.03;;;;;;;25.72;32.90;97938.41;8346700;28;20605;-68
2023/05/07 13:44:28;;;;;;;3.30;3.10;;;;;;;26.12;31.45;97931.47;8347815;28;20237;-69
2023/05/07 13:48:31;;;;;;;4.22;2.55;;;;;;;26.52;32.75;97935.03;8346962;28;20241;-68
2023/05/07 13:52:36;;;;;;;3.03;2.83;;;;;;;26.19;33.07;97918.34;8347762;28;20237;-68
2023/05/07 13:56:38;;;;;;;3.17;2.88;;;;;;;26.18;32.51;97921.16;8347721;28;20237;-68
2023/05/07 14:00:41;;;;;;;3.83;2.67;;;;;;;25.75;32.42;97887.66;8347599;28;20233;-69
2023/05/07 14:04:45;;;;;;;3.25;3.05;;;;;;;25.81;32.62;97923.31;8347547;28;20234;-69
2023/05/07 14:08:51;;;;;;;2.90;2.70;;;;;;;25.76;33.59;97917.69;8345838;28;20226;-69
2023/05/07 14:12:54;;;;;;;3.10;2.90;;;;;;;24.88;33.12;97854.56;8346933;28;20242;-70
2023/05/07 14:16:57;;;;;;;2.92;2.70;;;;;;;26.16;32.66;97900.13;8346580;28;20230;-69
2023/05/07 14:21:01;;;;;;;3.10;2.87;;;;;;;25.48;32.93;97915.34;8346861;28;20529;-71
2023/05/07 14:25:09;;;;;;;3.23;3.03;;;;;;;24.95;33.13;97906.75;8346268;28;20423;-69
2023/05/07 14:29:12;;;;;;;3.30;3.10;;;;;;;24.93;32.81;97907.91;8346433;28;20498;-70
2023/05/07 14:33:18;;;;;;;3.20;3.00;;;;;;;25.09;33.34;97907.13;8346346;28;20359;-70
2023/05/07 14:37:21;;;;;;;3.07;2.80;;;;;;;24.81;34.60;97910.03;8344082;28;20242;-70
2023/05/07 14:41:25;;;;;;;3.27;3.00;;;;;;;24.09;35.04;97912.09;8345668;28;20233;-70
2023/05/07 14:45:28;;;;;;;3.10;2.90;;;;;;;23.96;34.84;97917.78;8345269;28;20546;-70
2023/05/07 14:49:31;;;;;;;3.33;3.03;;;;;;;23.89;35.39;97917.53;8345790;28;20237;-70
2023/05/07 14:53:33;;;;;;;3.03;2.83;;;;;;;23.55;35.90;97910.31;8345415;28;20237;-69
2023/05/07 14:57:38;;;;;;;3.43;3.13;;;;;;;23.85;34.74;97918.00;8345188;28;20237;-70
2023/05/07 15:01:45;;;;;;;3.20;2.90;;;;;;;23.64;34.86;97937.63;8345693;28;20507;-70
2023/05/07 15:05:51;;;;;;;3.60;3.10;;;;;;;23.62;34.91;97940.41;8345259;28;20275;-70
2023/05/07 15:09:53;;;;;;;2.93;2.73;;;;;;;23.86;34.86;97931.09;8345703;28;20432;-70
2023/05/07 15:13:57;;;;;;;3.00;2.60;;;;;;;24.03;34.68;97928.56;8350916;28;20232;-69
2023/05/07 15:18:02;;;;;;;2.80;2.60;;;;;;;23.85;33.42;97931.22;8345505;28;20241;-69
2023/05/07 15:22:06;;;;;;;4.73;4.33;;;;;;;23.74;34.33;97930.47;8345693;28;20313;-69
2023/05/07 15:26:08;;;;;;;2.43;2.27;;;;;;;24.14;34.96;97923.00;8345558;28;20233;-69
2023/05/07 15:30:14;;;;;;;4.13;3.53;;;;;;;23.75;34.14;97926.81;8345419;28;20299;-70
2023/05/07 15:34:17;;;;;;;3.03;2.83;;;;;;;23.50;35.02;97936.34;8345309;28;20229;-70
2023/05/07 15:38:22;;;;;;;3.20;3.00;;;;;;;23.45;35.38;97924.56;8344601;28;20513;-70
2023/05/07 15:42:25;;;;;;;2.83;2.63;;;;;;;23.50;35.25;97928.44;8345023;28;20226;-69
2023/05/07 15:46:32;;;;;;;3.20;3.00;;;;;;;23.41;35.39;97916.94;8344400;28;20245;-69
2023/05/07 15:50:36;;;;;;;3.40;3.10;;;;;;;23.39;36.08;97918.91;8345441;28;20234;-70
2023/05/07 15:54:39;;;;;;;2.90;2.70;;;;;;;23.37;34.75;97925.31;8344985;28;20230;-70
2023/05/07 15:58:45;;;;;;;4.90;4.40;;;;;;;23.23;34.33;97921.41;8343464;28;20221;-69
2023/05/07 16:02:50;;;;;;;3.47;3.17;;;;;;;23.14;33.98;97924.91;8344512;28;20237;-69
2023/05/07 16:06:54;;;;;;;3.43;3.20;;;;;;;23.31;34.42;97899.50;8344994;28;20545;-70
2023/05/07 16:10:57;;;;;;;3.60;3.30;;;;;;;23.37;33.68;97931.44;8348183;28;20238;-70
2023/05/07 16:15:00;;;;;;;2.80;2.60;;;;;;;23.38;34.19;97929.59;8349574;28;20225;-69
2023/05/07 16:19:08;;;;;;;3.67;2.47;;;;;;;23.06;34.84;97917.75;8351045;28;20563;-69
2023/05/07 16:23:14;;;;;;;15.30;3.70;;;;;;;23.28;34.87;97936.78;8350329;28;20261;-70
2023/05/07 16:27:18;;;;;;;2.70;2.50;;;;;;;23.15;34.39;97937.13;8349969;28;20534;-69
2023/05/07 16:31:21;;;;;;;2.30;2.20;;;;;;;23.15;35.10;97938.00;8342336;28;20237;-70
2023/05/07 16:35:26;;;;;;;2.90;2.70;;;;;;;22.91;34.85;97937.66;8349741;28;20336;-69
2023/05/07 16:39:29;;;;;;;2.50;2.40;;;;;;;22.96;34.67;97944.19;8350093;28;20233;-69
2023/05/07 16:43:32;;;;;;;5.63;5.23;;;;;;;22.95;35.32;97945.13;8350013;28;20232;-69
2023/05/07 16:47:35;;;;;;;3.50;3.27;;;;;;;22.73;36.11;97958.72;8349473;28;20242;-69
2023/05/07 16:51:42;;;;;;;4.70;2.93;;;;;;;22.82;36.46;97955.22;8349443;28;20245;-70
2023/05/07 16:55:45;;;;;;;5.13;4.83;;;;;;;22.88;36.70;97959.06;8349302;28;20229;-70
2023/05/07 16:59:48;;;;;;;3.57;3.20;;;;;;;22.74;36.75;97961.22;8349697;28;20430;-70
2023/05/07 17:03:53;;;;;;;3.63;3.33;;;;;;;22.55;36.46;97958.66;8349194;28;20234;-70
2023/05/07 17:07:58;;;;;;;3.03;2.77;;;;;;;22.53;36.82;97964.06;8348868;28;20226;-70
2023/05/07 17:12:01;;;;;;;3.80;3.17;;;;;;;22.51;37.25;97966.03;8348554;28;20232;-70
2023/05/07 17:16:05;;;;;;;3.80;3.50;;;;;;;22.47;37.88;97956.72;8349193;28;20464;-70
2023/05/07 17:20:08;;;;;;;4.40;4.00;;;;;;;22.23;38.08;97971.19;8348972;28;20237;-70
2023/05/07 17:24:13;;;;;;;4.37;3.97;;;;;;;22.26;38.40;97964.84;8348520;28;20245;-70
2023/05/07 17:28:16;;;;;;;5.10;4.70;;;;;;;21.88;39.24;97961.25;8348166;28;20270;-70
2023/05/07 17:32:18;;;;;;;4.93;4.43;;;;;;;22.14;38.56;97973.84;8347700;28;20222;-71
2023/05/07 17:36:21;;;;;;;4.97;4.57;;;;;;;22.01;39.25;97980.25;8347805;28;20233;-71
2023/05/07 17:40:28;;;;;;;5.03;4.70;;;;;;;22.01;39.04;97984.69;8347895;28;20544;-71
2023/05/07 17:44:32;;;;;;;4.70;4.30;;;;;;;21.78;39.05;97990.25;8347577;28;20249;-70
2023/05/07 17:48:37;;;;;;;5.00;4.50;;;;;;;21.80;39.13;97980.38;8347615;28;20233;-70
2023/05/07 17:52:41;;;;;;;4.93;4.37;;;;;;;21.80;38.93;97998.00;8347446;28;20225;-70
2023/05/07 17:56:45;;;;;;;4.77;4.47;;;;;;;21.47;39.24;98000.03;8347443;28;20236;-69
2023/05/07 18:00:48;;;;;;;4.57;3.93;;;;;;;21.28;39.64;98006.91;8347563;28;20233;-70
2023/05/07 18:04:51;;;;;;;5.00;4.50;;;;;;;21.04;39.60;97973.03;8347175;28;20240;-70
2023/05/07 18:08:55;;;;;;;4.57;4.17;;;;;;;21.43;39.33;98009.97;8347160;28;20226;-70
2023/05/07 18:13:00;;;;;;;4.70;4.30;;;;;;;20.97;40.07;98016.63;8346564;28;20229;-71
2023/05/07 18:17:03;;;;;;;4.20;3.90;;;;;;;21.05;40.14;98018.59;8347312;28;20225;-71
2023/05/07 18:21:06;;;;;;;5.50;5.03;;;;;;;21.17;40.42;98029.88;8347438;28;20232;-69
2023/05/07 18:25:09;;;;;;;4.70;4.30;;;;;;;20.89;40.80;98025.19;8346854;28;20233;-70
2023/05/07 18:29:15;;;;;;;4.03;3.83;;;;;;;20.88;40.56;98020.88;8345433;28;20459;-73
2023/05/07 18:33:19;;;;;;;4.30;4.00;;;;;;;20.80;41.09;98036.50;8346027;28;20359;-72
2023/05/07 18:37:22;;;;;;;4.70;4.40;;;;;;;20.79;41.19;98039.25;8346868;28;20231;-73
2023/05/07 18:41:27;;;;;;;7.93;4.80;;;;;;;20.62;41.13;98031.03;8346313;28;20237;-73
2023/05/07 18:45:32;;;;;;;4.37;4.00;;;;;;;20.49;40.94;98062.75;8344907;28;20234;-72
2023/05/07 18:49:36;;;;;;;4.40;4.00;;;;;;;20.60;40.61;98064.50;8346024;28;20241;-72
2023/05/07 18:53:39;;;;;;;4.40;4.10;;;;;;;20.21;40.72;98069.44;8345925;28;20257;-72
2023/05/07 18:57:43;;;;;;;4.30;4.00;;;;;;;20.40;40.29;98075.81;8346325;28;20604;-72
2023/05/07 19:01:48;;;;;;;3.50;3.30;;;;;;;20.33;40.30;98075.50;8345873;28;20521;-72
2023/05/07 19:05:51;;;;;;;4.47;3.50;;;;;;;20.16;40.42;98079.50;8345963;28;20469;-72
2023/05/07 19:09:53;;;;;;;3.43;3.13;;;;;;;20.24;40.30;98094.69;8346178;28;20291;-72
2023/05/07 19:14:09;;;;;;;3.50;3.30;;;;;;;20.26;39.66;98100.66;8345939;28;20240;-73
2023/05/07 19:18:13;;;;;;;3.20;2.90;;;;;;;20.02;40.17;98106.09;8345798;28;20263;-74